createdAt,value
2023-07-06T00:00:30.614Z,22.45
2023-07-06T00:02:57.147Z,22.42
2023-07-06T00:05:25.028Z,22.40
2023-07-06T00:07:51.524Z,22.36
2023-07-06T00:10:17.989Z,22.32
2023-07-06T00:12:44.471Z,22.29
2023-07-06T00:15:11.577Z,22.26
2023-07-06T00:17:38.130Z,22.22
2023-07-06T00:20:05.089Z,22.20
2023-07-06T00:22:31.585Z,22.19
2023-07-06T00:24:58.199Z,22.18
2023-07-06T00:27:24.798Z,22.16
2023-07-06T00:29:51.297Z,22.14
2023-07-06T00:32:17.827Z,22.12
2023-07-06T00:34:44.496Z,22.09
2023-07-06T00:37:12.402Z,22.08
2023-07-06T00:39:39.351Z,22.05
2023-07-06T00:42:14.753Z,21.99
2023-07-06T00:44:55.291Z,21.94
2023-07-06T00:47:45.786Z,21.91
2023-07-06T00:50:16.960Z,21.88
2023-07-06T00:52:49.831Z,21.86
2023-07-06T00:55:20.805Z,21.85
2023-07-06T00:57:52.363Z,21.85
2023-07-06T01:00:19.424Z,21.86
2023-07-06T01:02:46.177Z,21.88
2023-07-06T01:05:12.889Z,21.91
2023-07-06T01:07:42.919Z,21.93
2023-07-06T01:10:09.716Z,21.93
2023-07-06T01:12:36.243Z,21.93
2023-07-06T01:15:03.084Z,21.92
2023-07-06T01:17:40.421Z,21.92
2023-07-06T01:20:13.092Z,21.92
2023-07-06T01:22:57.663Z,21.91
2023-07-06T01:26:00.571Z,21.93
2023-07-06T01:28:37.070Z,21.92
2023-07-06T01:31:18.990Z,21.91
2023-07-06T01:33:57.719Z,21.91
2023-07-06T01:36:43.692Z,21.92
2023-07-06T01:39:19.861Z,21.91
2023-07-06T01:41:59.218Z,21.90
2023-07-06T01:44:25.718Z,21.89
2023-07-06T01:46:54.408Z,21.89
2023-07-06T01:49:21.735Z,21.86
2023-07-06T01:52:02.730Z,21.81
2023-07-06T01:54:36.351Z,21.75
2023-07-06T01:57:13.226Z,21.70
2023-07-06T01:59:43.533Z,21.67
2023-07-06T02:02:10.126Z,21.66
2023-07-06T02:04:38.997Z,21.64
2023-07-06T02:07:07.456Z,21.59
2023-07-06T02:09:45.876Z,21.53
2023-07-06T02:12:12.671Z,21.48
2023-07-06T02:14:40.050Z,21.42
2023-07-06T02:17:06.776Z,21.39
2023-07-06T02:19:33.324Z,21.37
2023-07-06T02:21:59.886Z,21.37
2023-07-06T02:24:26.413Z,21.34
2023-07-06T02:26:52.888Z,21.29
2023-07-06T02:29:19.382Z,21.23
2023-07-06T02:31:45.900Z,21.17
2023-07-06T02:34:12.394Z,21.14
2023-07-06T02:36:38.970Z,21.12
2023-07-06T02:39:05.605Z,21.09
2023-07-06T02:41:32.157Z,21.05
2023-07-06T02:43:58.920Z,20.99
2023-07-06T02:46:25.466Z,20.96
2023-07-06T02:48:51.989Z,20.93
2023-07-06T02:51:18.490Z,20.88
2023-07-06T02:53:45.011Z,20.86
2023-07-06T02:56:11.560Z,20.83
2023-07-06T02:58:38.002Z,20.80
2023-07-06T03:01:04.430Z,20.78
2023-07-06T03:03:31.168Z,20.76
2023-07-06T03:05:57.800Z,20.72
2023-07-06T03:08:24.591Z,20.70
2023-07-06T03:10:51.024Z,20.70
2023-07-06T03:13:17.754Z,20.69
2023-07-06T03:15:44.424Z,20.67
2023-07-06T03:18:10.905Z,20.65
2023-07-06T03:20:37.396Z,20.62
2023-07-06T03:23:04.709Z,20.60
2023-07-06T03:25:31.313Z,20.58
2023-07-06T03:27:57.811Z,20.57
2023-07-06T03:30:27.785Z,20.56
2023-07-06T03:32:55.112Z,20.55
2023-07-06T03:35:22.799Z,20.54
2023-07-06T03:37:49.434Z,20.57
2023-07-06T03:40:16.207Z,20.57
2023-07-06T03:42:45.666Z,20.58
2023-07-06T03:45:17.955Z,20.60
2023-07-06T03:47:45.795Z,20.61
2023-07-06T03:50:14.510Z,20.58
2023-07-06T03:52:41.935Z,20.56
2023-07-06T03:55:13.674Z,20.55
2023-07-06T03:57:54.460Z,20.55
2023-07-06T04:00:29.177Z,20.55
2023-07-06T04:02:57.468Z,20.54
2023-07-06T04:05:28.228Z,20.53
2023-07-06T04:07:54.784Z,20.53
2023-07-06T04:10:21.474Z,20.52
2023-07-06T04:12:48.976Z,20.52
2023-07-06T04:15:17.535Z,20.53
2023-07-06T04:17:46.614Z,20.54
2023-07-06T04:20:20.131Z,20.54
2023-07-06T04:22:49.196Z,20.57
2023-07-06T04:25:16.620Z,20.59
2023-07-06T04:27:43.123Z,20.62
2023-07-06T04:30:13.029Z,20.65
2023-07-06T04:32:39.673Z,20.64
2023-07-06T04:35:06.831Z,20.63
2023-07-06T04:37:33.438Z,20.59
2023-07-06T04:40:00.249Z,20.58
2023-07-06T04:42:26.754Z,20.59
2023-07-06T04:44:53.280Z,20.61
2023-07-06T04:47:19.785Z,20.62
2023-07-06T04:49:46.322Z,20.65
2023-07-06T04:52:12.775Z,20.67
2023-07-06T04:54:39.378Z,20.71
2023-07-06T04:57:06.197Z,20.76
2023-07-06T04:59:32.693Z,20.79
2023-07-06T05:01:59.190Z,20.82
2023-07-06T05:04:25.657Z,20.82
2023-07-06T05:06:52.131Z,20.82
2023-07-06T05:09:18.624Z,20.82
2023-07-06T05:11:45.143Z,20.82
2023-07-06T05:14:11.626Z,20.82
2023-07-06T05:16:38.156Z,20.82
2023-07-06T05:19:04.680Z,20.84
2023-07-06T05:21:31.162Z,20.85
2023-07-06T05:23:57.682Z,20.83
2023-07-06T05:26:26.039Z,20.79
2023-07-06T05:28:52.548Z,20.75
2023-07-06T05:31:19.097Z,20.70
2023-07-06T05:33:45.664Z,20.67
2023-07-06T05:36:12.154Z,20.64
2023-07-06T05:38:38.644Z,20.60
2023-07-06T05:41:05.152Z,20.53
2023-07-06T05:43:31.809Z,20.50
2023-07-06T05:45:58.471Z,20.46
2023-07-06T05:48:25.235Z,20.42
2023-07-06T05:50:51.782Z,20.39
2023-07-06T05:53:18.365Z,20.40
2023-07-06T05:55:44.986Z,20.39
2023-07-06T05:58:12.436Z,20.39
2023-07-06T06:00:42.857Z,20.37
2023-07-06T06:03:09.473Z,20.36
2023-07-06T06:05:36.109Z,20.35
2023-07-06T06:08:02.587Z,20.33
2023-07-06T06:10:29.772Z,20.34
2023-07-06T06:12:56.278Z,20.33
2023-07-06T06:15:22.804Z,20.29
2023-07-06T06:17:49.362Z,20.27
2023-07-06T06:20:16.014Z,20.25
2023-07-06T06:22:42.473Z,20.23
2023-07-06T06:25:09.406Z,20.21
2023-07-06T06:27:35.914Z,20.19
2023-07-06T06:30:02.608Z,20.15
2023-07-06T06:32:29.141Z,20.12
2023-07-06T06:34:55.701Z,20.05
2023-07-06T06:37:22.230Z,20.02
2023-07-06T06:39:51.383Z,20.02
2023-07-06T06:42:18.985Z,20.04
2023-07-06T06:44:45.553Z,20.06
2023-07-06T06:47:12.184Z,20.09
2023-07-06T06:49:38.755Z,20.10
2023-07-06T06:52:06.091Z,20.09
2023-07-06T06:54:33.681Z,20.07
2023-07-06T06:57:02.046Z,20.06
2023-07-06T06:59:28.669Z,20.07
2023-07-06T07:01:56.109Z,20.09
2023-07-06T07:04:22.958Z,20.10
2023-07-06T07:06:49.431Z,20.12
2023-07-06T07:09:15.932Z,20.11
2023-07-06T07:11:42.496Z,20.11
2023-07-06T07:14:11.290Z,20.15
2023-07-06T07:16:38.452Z,20.25
2023-07-06T07:19:04.967Z,20.35
2023-07-06T07:21:31.485Z,20.45
2023-07-06T07:23:57.967Z,20.51
2023-07-06T07:26:24.491Z,20.55
2023-07-06T07:28:51.092Z,20.61
2023-07-06T07:31:19.142Z,20.66
2023-07-06T07:33:47.382Z,20.73
2023-07-06T07:36:15.725Z,20.83
2023-07-06T07:38:42.254Z,20.94
2023-07-06T07:41:09.606Z,21.04
2023-07-06T07:43:38.169Z,21.15
2023-07-06T07:46:08.142Z,21.29
2023-07-06T07:48:36.175Z,21.47
2023-07-06T07:51:05.768Z,21.64
2023-07-06T07:53:38.222Z,21.83
2023-07-06T07:56:07.160Z,22.05
2023-07-06T07:58:35.588Z,22.27
2023-07-06T08:01:04.514Z,22.48
2023-07-06T08:03:31.131Z,22.64
2023-07-06T08:06:00.214Z,22.76
2023-07-06T08:08:26.981Z,22.81
2023-07-06T08:10:54.685Z,22.84
2023-07-06T08:13:21.807Z,22.89
2023-07-06T08:15:49.694Z,22.92
2023-07-06T08:18:16.796Z,22.95
2023-07-06T08:21:11.020Z,22.95
2023-07-06T08:23:30.508Z,22.95
2023-07-06T08:25:57.194Z,22.95
2023-07-06T08:28:26.813Z,22.95
2023-07-06T08:30:53.372Z,22.96
2023-07-06T08:33:20.212Z,22.98
2023-07-06T08:35:46.916Z,23.01
2023-07-06T08:38:13.988Z,23.06
2023-07-06T08:40:42.500Z,23.14
2023-07-06T08:43:22.363Z,23.23
2023-07-06T08:45:53.036Z,23.35
2023-07-06T08:48:27.432Z,23.50
2023-07-06T08:51:01.975Z,23.66
2023-07-06T08:53:32.732Z,23.80
2023-07-06T08:56:01.369Z,23.94
2023-07-06T08:58:29.898Z,24.07
2023-07-06T09:01:10.765Z,24.20
2023-07-06T09:03:42.745Z,24.35
2023-07-06T09:06:13.551Z,24.48
2023-07-06T09:08:41.694Z,24.58
2023-07-06T09:11:20.789Z,24.68
2023-07-06T09:13:54.172Z,24.77
2023-07-06T09:16:20.673Z,24.84
2023-07-06T09:18:51.750Z,24.93
2023-07-06T09:21:21.890Z,25.03
2023-07-06T09:23:48.724Z,25.15
2023-07-06T09:26:33.933Z,25.26
2023-07-06T09:29:22.170Z,25.40
2023-07-06T09:31:50.041Z,25.55
2023-07-06T09:34:43.075Z,25.63
2023-07-06T09:37:12.713Z,25.71
2023-07-06T09:39:40.022Z,25.76
2023-07-06T09:42:10.703Z,25.76
2023-07-06T09:44:37.168Z,25.80
2023-07-06T09:47:09.402Z,25.86
2023-07-06T09:49:52.494Z,25.94
2023-07-06T09:52:19.994Z,26.04
2023-07-06T09:55:18.362Z,26.13
2023-07-06T09:57:44.937Z,26.25
2023-07-06T10:00:17.210Z,26.33
2023-07-06T10:02:49.876Z,26.37
2023-07-06T10:05:22.297Z,26.40
2023-07-06T10:08:01.608Z,26.47
2023-07-06T10:10:37.713Z,26.54
2023-07-06T10:13:12.997Z,26.61
2023-07-06T10:15:46.627Z,26.71
2023-07-06T10:18:24.103Z,26.81
2023-07-06T10:20:53.718Z,26.88
2023-07-06T10:23:41.817Z,27.00
2023-07-06T10:26:28.602Z,27.17
2023-07-06T10:29:02.847Z,27.35
2023-07-06T10:31:46.342Z,27.45
2023-07-06T10:34:31.169Z,27.48
2023-07-06T10:36:57.842Z,27.55
2023-07-06T10:39:24.372Z,27.58
2023-07-06T10:42:00.200Z,27.57
2023-07-06T10:44:38.738Z,27.60
2023-07-06T10:47:05.270Z,27.60
2023-07-06T10:49:31.757Z,27.56
2023-07-06T10:51:58.824Z,27.51
2023-07-06T10:54:31.588Z,27.51
2023-07-06T10:57:03.645Z,27.50
2023-07-06T10:59:47.074Z,27.48
2023-07-06T11:02:35.061Z,27.48
2023-07-06T11:05:17.994Z,27.49
2023-07-06T11:07:50.309Z,27.55
2023-07-06T11:10:28.807Z,27.61
2023-07-06T11:13:22.224Z,27.68
2023-07-06T11:15:49.019Z,27.76
2023-07-06T11:18:34.533Z,27.81
2023-07-06T11:21:25.484Z,27.87
2023-07-06T11:23:58.346Z,27.82
2023-07-06T11:26:49.103Z,27.85
2023-07-06T11:29:19.550Z,27.84
2023-07-06T11:31:49.299Z,27.78
2023-07-06T11:34:30.810Z,27.75
2023-07-06T11:37:09.211Z,27.78
2023-07-06T11:39:58.582Z,27.83
2023-07-06T11:43:16.301Z,27.84
2023-07-06T11:46:10.478Z,27.87
2023-07-06T11:48:47.019Z,27.94
2023-07-06T11:51:13.777Z,27.95
2023-07-06T11:53:43.521Z,27.92
2023-07-06T11:56:24.069Z,27.89
2023-07-06T11:58:51.485Z,27.87
2023-07-06T12:01:18.317Z,27.85
2023-07-06T12:03:46.178Z,27.87
2023-07-06T12:06:15.943Z,27.90
2023-07-06T12:08:42.436Z,27.90
2023-07-06T12:11:14.064Z,27.92
2023-07-06T12:13:44.578Z,27.93
2023-07-06T12:16:11.108Z,27.95
2023-07-06T12:18:38.856Z,27.99
2023-07-06T12:21:07.284Z,28.07
2023-07-06T12:23:34.503Z,28.13
2023-07-06T12:26:01.067Z,28.20
2023-07-06T12:28:29.277Z,28.33
2023-07-06T12:30:59.857Z,28.41
2023-07-06T12:33:26.902Z,28.49
2023-07-06T12:35:54.319Z,28.55
2023-07-06T12:38:22.641Z,28.64
2023-07-06T12:40:49.425Z,28.72
2023-07-06T12:43:36.319Z,28.76
2023-07-06T12:46:03.007Z,28.82
2023-07-06T12:48:29.610Z,28.94
2023-07-06T12:50:56.905Z,29.05
2023-07-06T12:53:28.958Z,29.11
2023-07-06T12:56:20.426Z,29.23
2023-07-06T12:58:54.993Z,29.31
2023-07-06T13:01:29.142Z,29.25
2023-07-06T13:04:05.456Z,29.13
2023-07-06T13:06:31.944Z,28.99
2023-07-06T13:09:04.172Z,28.87
2023-07-06T13:11:30.680Z,28.83
2023-07-06T13:14:02.320Z,28.92
2023-07-06T13:16:41.982Z,28.98
2023-07-06T13:19:13.133Z,29.07
2023-07-06T13:21:39.885Z,29.09
2023-07-06T13:24:06.699Z,28.98
2023-07-06T13:26:33.283Z,28.92
2023-07-06T13:28:59.816Z,28.91
2023-07-06T13:31:29.741Z,28.91
2023-07-06T13:34:00.850Z,28.99
2023-07-06T13:36:27.433Z,29.08
2023-07-06T13:38:53.933Z,29.19
2023-07-06T13:41:23.623Z,29.30
2023-07-06T13:43:50.164Z,29.47
2023-07-06T13:46:17.972Z,29.65
2023-07-06T13:48:45.172Z,29.84
2023-07-06T13:51:12.619Z,29.94
2023-07-06T13:53:39.155Z,29.98
2023-07-06T13:56:07.109Z,29.95
2023-07-06T13:58:33.967Z,29.91
2023-07-06T14:01:00.549Z,29.83
2023-07-06T14:03:29.905Z,29.78
2023-07-06T14:05:56.607Z,29.80
2023-07-06T14:08:24.046Z,29.84
2023-07-06T14:10:50.547Z,29.90
2023-07-06T14:13:18.118Z,29.91
2023-07-06T14:15:45.809Z,29.91
2023-07-06T14:18:12.427Z,29.99
2023-07-06T14:20:40.666Z,30.11
2023-07-06T14:23:08.014Z,30.16
2023-07-06T14:25:36.998Z,30.13
2023-07-06T14:28:04.302Z,30.11
2023-07-06T14:30:32.703Z,30.11
2023-07-06T14:33:04.586Z,30.11
2023-07-06T14:35:31.151Z,29.98
2023-07-06T14:37:57.624Z,29.73
2023-07-06T14:40:24.117Z,29.47
2023-07-06T14:42:54.850Z,29.25
2023-07-06T14:45:21.817Z,29.09
2023-07-06T14:47:48.822Z,29.03
2023-07-06T14:50:15.518Z,29.01
2023-07-06T14:52:41.995Z,28.96
2023-07-06T14:55:09.168Z,28.86
2023-07-06T14:57:36.236Z,28.82
2023-07-06T15:00:03.935Z,28.81
2023-07-06T15:02:30.465Z,28.73
2023-07-06T15:04:56.988Z,28.69
2023-07-06T15:07:23.861Z,28.74
2023-07-06T15:09:51.545Z,28.83
2023-07-06T15:12:18.411Z,28.87
2023-07-06T15:14:45.082Z,28.89
2023-07-06T15:17:11.924Z,28.89
2023-07-06T15:19:38.776Z,28.90
2023-07-06T15:22:05.873Z,28.93
2023-07-06T15:24:32.417Z,28.89
2023-07-06T15:26:58.919Z,28.86
2023-07-06T15:29:25.574Z,28.91
2023-07-06T15:31:52.135Z,28.97
2023-07-06T15:34:18.666Z,28.96
2023-07-06T15:36:45.160Z,28.99
2023-07-06T15:39:12.138Z,29.02
2023-07-06T15:41:39.740Z,29.05
2023-07-06T15:44:06.981Z,29.06
2023-07-06T15:46:34.801Z,29.08
2023-07-06T15:49:06.399Z,29.05
2023-07-06T15:51:33.488Z,28.93
2023-07-06T15:54:00.090Z,28.77
2023-07-06T15:56:26.608Z,28.62
2023-07-06T15:59:01.434Z,28.47
2023-07-06T16:01:28.978Z,28.34
2023-07-06T16:03:55.949Z,28.21
2023-07-06T16:06:24.599Z,28.09
2023-07-06T16:08:51.153Z,27.95
2023-07-06T16:11:25.347Z,27.83
2023-07-06T16:14:05.427Z,27.69
2023-07-06T16:16:39.001Z,27.59
2023-07-06T16:19:05.526Z,27.53
2023-07-06T16:21:32.036Z,27.52
2023-07-06T16:23:58.521Z,27.51
2023-07-06T16:26:25.436Z,27.51
2023-07-06T16:28:54.831Z,27.52
2023-07-06T16:31:22.877Z,27.49
2023-07-06T16:33:50.150Z,27.46
2023-07-06T16:36:19.225Z,27.42
2023-07-06T16:38:46.126Z,27.37
2023-07-06T16:41:14.097Z,27.32
2023-07-06T16:43:41.491Z,27.31
2023-07-06T16:46:08.912Z,27.33
2023-07-06T16:48:35.577Z,27.37
2023-07-06T16:51:04.095Z,27.33
2023-07-06T16:53:31.353Z,27.27
2023-07-06T16:55:58.275Z,27.23
2023-07-06T16:58:25.095Z,27.18
2023-07-06T17:00:52.055Z,27.14
2023-07-06T17:03:19.895Z,27.10
2023-07-06T17:05:48.768Z,27.06
2023-07-06T17:08:15.351Z,27.03
2023-07-06T17:10:42.169Z,27.02
2023-07-06T17:13:08.738Z,27.02
2023-07-06T17:15:35.352Z,27.03
2023-07-06T17:18:02.297Z,27.01
2023-07-06T17:20:29.001Z,26.98
2023-07-06T17:22:55.672Z,26.94
2023-07-06T17:25:23.357Z,26.90
2023-07-06T17:27:49.938Z,26.81
2023-07-06T17:30:16.631Z,26.71
2023-07-06T17:32:43.603Z,26.63
2023-07-06T17:35:10.194Z,26.55
2023-07-06T17:37:36.869Z,26.45
2023-07-06T17:40:04.312Z,26.34
2023-07-06T17:42:31.333Z,26.24
2023-07-06T17:44:57.866Z,26.13
2023-07-06T17:47:24.395Z,26.06
2023-07-06T17:49:51.121Z,26.00
2023-07-06T17:52:17.814Z,25.94
2023-07-06T17:54:44.315Z,25.88
2023-07-06T17:57:10.869Z,25.81
2023-07-06T17:59:37.353Z,25.74
2023-07-06T18:02:03.953Z,25.67
2023-07-06T18:04:30.845Z,25.62
2023-07-06T18:06:57.470Z,25.57
2023-07-06T18:09:24.073Z,25.51
2023-07-06T18:11:50.581Z,25.44
2023-07-06T18:14:17.382Z,25.38
2023-07-06T18:16:44.312Z,25.30
2023-07-06T18:19:10.975Z,25.22
2023-07-06T18:21:37.481Z,25.14
2023-07-06T18:24:04.272Z,25.07
2023-07-06T18:26:30.784Z,24.99
2023-07-06T18:28:57.242Z,24.93
2023-07-06T18:31:23.772Z,24.88
2023-07-06T18:33:50.257Z,24.82
2023-07-06T18:36:16.779Z,24.75
2023-07-06T18:38:43.262Z,24.70
2023-07-06T18:41:09.860Z,24.66
2023-07-06T18:43:36.367Z,24.61
2023-07-06T18:46:03.208Z,24.56
2023-07-06T18:48:31.972Z,24.49
2023-07-06T18:50:58.781Z,24.42
2023-07-06T18:53:32.679Z,24.37
2023-07-06T18:56:03.478Z,24.30
2023-07-06T18:58:30.009Z,24.25
2023-07-06T19:00:56.692Z,24.21
2023-07-06T19:03:23.557Z,24.15
2023-07-06T19:05:50.148Z,24.11
2023-07-06T19:08:16.651Z,24.06
2023-07-06T19:10:43.516Z,24.00
2023-07-06T19:13:11.808Z,23.96
2023-07-06T19:15:49.107Z,23.92
2023-07-06T19:18:15.984Z,23.89
2023-07-06T19:20:49.310Z,23.85
2023-07-06T19:23:15.792Z,23.81
2023-07-06T19:25:43.515Z,23.78
2023-07-06T19:28:10.318Z,23.74
2023-07-06T19:30:37.736Z,23.69
2023-07-06T19:33:05.723Z,23.65
2023-07-06T19:35:35.627Z,23.60
2023-07-06T19:38:02.162Z,23.55
2023-07-06T19:40:28.675Z,23.49
2023-07-06T19:42:55.168Z,23.44
2023-07-06T19:45:22.258Z,23.41
2023-07-06T19:47:48.773Z,23.39
2023-07-06T19:50:15.796Z,23.34
2023-07-06T19:52:42.289Z,23.31
2023-07-06T19:55:09.646Z,23.28
2023-07-06T19:57:44.177Z,23.25
2023-07-06T20:00:14.026Z,23.22
2023-07-06T20:02:41.396Z,23.19
2023-07-06T20:05:08.694Z,23.16
2023-07-06T20:07:35.351Z,23.13
2023-07-06T20:10:02.488Z,23.10
2023-07-06T20:12:29.065Z,23.09
2023-07-06T20:14:55.595Z,23.06
2023-07-06T20:17:23.984Z,23.03
2023-07-06T20:19:51.024Z,23.01
2023-07-06T20:22:18.576Z,22.99
2023-07-06T20:24:45.072Z,22.97
2023-07-06T20:27:11.626Z,22.96
2023-07-06T20:29:38.152Z,22.95
2023-07-06T20:32:06.166Z,22.95
2023-07-06T20:34:32.694Z,22.93
2023-07-06T20:36:59.283Z,22.92
2023-07-06T20:39:26.044Z,22.91
2023-07-06T20:41:52.570Z,22.88
2023-07-06T20:44:19.225Z,22.86
2023-07-06T20:46:45.886Z,22.83
2023-07-06T20:49:12.451Z,22.81
2023-07-06T20:51:38.981Z,22.77
2023-07-06T20:54:05.469Z,22.70
2023-07-06T20:56:31.967Z,22.67
2023-07-06T20:58:58.433Z,22.65
2023-07-06T21:01:25.078Z,22.63
2023-07-06T21:03:51.733Z,22.61
2023-07-06T21:06:18.428Z,22.59
2023-07-06T21:08:44.973Z,22.59
2023-07-06T21:11:13.046Z,22.57
2023-07-06T21:13:40.725Z,22.53
2023-07-06T21:16:07.460Z,22.49
2023-07-06T21:18:34.021Z,22.46
2023-07-06T21:21:00.946Z,22.43
2023-07-06T21:23:27.660Z,22.40
2023-07-06T21:25:54.185Z,22.38
2023-07-06T21:28:20.689Z,22.35
2023-07-06T21:30:47.218Z,22.31
2023-07-06T21:33:13.703Z,22.29
2023-07-06T21:35:40.246Z,22.28
2023-07-06T21:38:07.858Z,22.27
2023-07-06T21:40:35.132Z,22.24
2023-07-06T21:43:01.688Z,22.22
2023-07-06T21:45:28.224Z,22.21
2023-07-06T21:47:54.727Z,22.20
2023-07-06T21:50:21.246Z,22.16
2023-07-06T21:52:47.725Z,22.12
2023-07-06T21:55:14.203Z,22.09
2023-07-06T21:57:40.726Z,22.03
2023-07-06T22:00:07.979Z,21.99
2023-07-06T22:02:34.551Z,21.94
2023-07-06T22:05:01.113Z,21.89
2023-07-06T22:07:27.676Z,21.85
2023-07-06T22:09:54.162Z,21.80
2023-07-06T22:12:20.622Z,21.76
2023-07-06T22:14:47.118Z,21.71
2023-07-06T22:17:13.603Z,21.65
2023-07-06T22:19:40.078Z,21.62
2023-07-06T22:22:08.101Z,21.61
2023-07-06T22:24:34.547Z,21.59
2023-07-06T22:27:01.022Z,21.58
2023-07-06T22:29:27.511Z,21.56
2023-07-06T22:31:54.048Z,21.55
2023-07-06T22:34:20.617Z,21.56
2023-07-06T22:36:47.152Z,21.57
2023-07-06T22:39:13.672Z,21.56
2023-07-06T22:41:40.147Z,21.56
2023-07-06T22:44:06.666Z,21.56
2023-07-06T22:46:33.231Z,21.56
2023-07-06T22:48:59.726Z,21.56
2023-07-06T22:51:26.206Z,21.55
2023-07-06T22:53:52.671Z,21.53
2023-07-06T22:56:19.168Z,21.51
2023-07-06T22:58:45.657Z,21.48
2023-07-06T23:01:18.224Z,21.48
2023-07-06T23:03:44.828Z,21.47
2023-07-06T23:06:11.491Z,21.44
2023-07-06T23:08:38.439Z,21.42
2023-07-06T23:11:05.410Z,21.39
2023-07-06T23:13:32.400Z,21.34
2023-07-06T23:15:59.520Z,21.30
2023-07-06T23:18:26.162Z,21.27
2023-07-06T23:20:52.749Z,21.25
2023-07-06T23:23:19.291Z,21.24
2023-07-06T23:25:48.581Z,21.21
2023-07-06T23:28:15.058Z,21.19
2023-07-06T23:30:43.295Z,21.17
2023-07-06T23:33:10.964Z,21.15
2023-07-06T23:35:40.441Z,21.16
2023-07-06T23:38:08.482Z,21.16
2023-07-06T23:40:35.013Z,21.16
2023-07-06T23:43:01.563Z,21.16
2023-07-06T23:45:28.261Z,21.17
2023-07-06T23:47:54.829Z,21.18
2023-07-06T23:50:21.395Z,21.19
2023-07-06T23:52:47.852Z,21.18
2023-07-06T23:55:14.345Z,21.15
2023-07-06T23:57:41.166Z,21.12
